createdAt,value
2022-07-30T00:00:39.745Z,99.90
2022-07-30T00:03:06.586Z,99.90
2022-07-30T00:05:33.496Z,99.90
2022-07-30T00:08:00.356Z,99.90
2022-07-30T00:10:27.807Z,99.90
2022-07-30T00:12:54.682Z,99.90
2022-07-30T00:15:21.618Z,99.90
2022-07-30T00:17:48.502Z,99.90
2022-07-30T00:20:16.864Z,99.90
2022-07-30T00:22:45.332Z,99.90
2022-07-30T00:25:12.227Z,99.90
2022-07-30T00:27:39.731Z,99.90
2022-07-30T00:30:07.198Z,99.90
2022-07-30T00:32:34.037Z,99.90
2022-07-30T00:35:02.230Z,99.90
2022-07-30T00:37:29.123Z,99.90
2022-07-30T00:39:56.037Z,99.90
2022-07-30T00:42:25.794Z,99.90
2022-07-30T00:44:53.142Z,99.90
2022-07-30T00:47:20.383Z,99.90
2022-07-30T00:49:47.381Z,99.90
2022-07-30T00:52:14.297Z,99.90
2022-07-30T00:54:41.233Z,99.90
2022-07-30T00:57:08.126Z,99.90
2022-07-30T00:59:36.393Z,99.90
2022-07-30T01:02:03.633Z,99.90
2022-07-30T01:04:31.169Z,99.90
2022-07-30T01:06:58.419Z,99.90
2022-07-30T01:09:25.443Z,99.90
2022-07-30T01:11:52.342Z,99.90
2022-07-30T01:14:19.205Z,99.90
2022-07-30T01:16:46.606Z,99.90
2022-07-30T01:19:43.816Z,99.90
2022-07-30T01:22:30.511Z,99.90
2022-07-30T01:25:17.886Z,99.90
2022-07-30T01:27:51.009Z,99.90
2022-07-30T01:30:21.872Z,99.90
2022-07-30T01:32:48.847Z,99.90
2022-07-30T01:35:16.389Z,99.90
2022-07-30T01:37:43.286Z,99.90
2022-07-30T01:40:10.935Z,99.90
2022-07-30T01:42:38.176Z,99.90
2022-07-30T01:45:06.852Z,99.90
2022-07-30T01:47:33.753Z,99.90
2022-07-30T01:50:00.704Z,99.90
2022-07-30T01:52:27.943Z,99.90
2022-07-30T01:54:54.922Z,99.90
2022-07-30T01:57:22.551Z,99.90
2022-07-30T01:59:52.008Z,99.90
2022-07-30T02:02:19.832Z,99.90
2022-07-30T02:04:47.097Z,99.90
2022-07-30T02:07:24.873Z,99.90
2022-07-30T02:10:07.574Z,99.90
2022-07-30T02:12:43.323Z,99.90
2022-07-30T02:15:29.420Z,99.90
2022-07-30T02:18:00.771Z,99.90
2022-07-30T02:20:29.564Z,99.90
2022-07-30T02:23:07.896Z,99.90
2022-07-30T02:25:35.786Z,99.90
2022-07-30T02:28:06.309Z,99.90
2022-07-30T02:30:34.985Z,99.90
2022-07-30T02:33:05.849Z,99.90
2022-07-30T02:35:32.896Z,99.90
2022-07-30T02:38:00.763Z,99.90
2022-07-30T02:40:29.902Z,99.90
2022-07-30T02:42:56.907Z,99.90
2022-07-30T02:45:26.441Z,99.90
2022-07-30T02:48:02.580Z,99.90
2022-07-30T02:50:29.597Z,99.90
2022-07-30T02:52:58.276Z,99.90
2022-07-30T02:55:25.364Z,99.90
2022-07-30T02:57:52.623Z,99.90
2022-07-30T03:00:20.159Z,99.90
2022-07-30T03:02:47.147Z,99.90
2022-07-30T03:05:14.347Z,99.90
2022-07-30T03:07:41.365Z,99.90
2022-07-30T03:10:08.695Z,99.90
2022-07-30T03:12:36.000Z,99.90
2022-07-30T03:15:02.887Z,99.90
2022-07-30T03:17:38.800Z,99.90
2022-07-30T03:20:08.625Z,99.90
2022-07-30T03:22:36.338Z,99.90
2022-07-30T03:25:03.435Z,99.90
2022-07-30T03:27:30.981Z,99.90
2022-07-30T03:29:58.323Z,99.90
2022-07-30T03:32:26.243Z,99.90
2022-07-30T03:34:54.558Z,99.90
2022-07-30T03:37:24.411Z,99.90
2022-07-30T03:39:54.368Z,99.90
2022-07-30T03:42:21.876Z,99.90
2022-07-30T03:44:49.096Z,99.90
2022-07-30T03:47:16.107Z,99.90
2022-07-30T03:49:47.287Z,99.90
2022-07-30T03:52:14.145Z,99.90
2022-07-30T03:54:41.105Z,99.90
2022-07-30T03:57:26.504Z,99.90
2022-07-30T03:59:53.413Z,99.90
2022-07-30T04:02:21.563Z,99.90
2022-07-30T04:05:17.444Z,99.90
2022-07-30T04:07:46.277Z,99.90
2022-07-30T04:10:17.175Z,99.90
2022-07-30T04:13:07.876Z,99.90
2022-07-30T04:16:37.389Z,99.90
2022-07-30T04:18:30.357Z,99.90
2022-07-30T04:20:57.273Z,99.90
2022-07-30T04:23:24.183Z,99.90
2022-07-30T04:25:51.773Z,99.90
2022-07-30T04:28:19.526Z,99.90
2022-07-30T04:30:46.491Z,99.90
2022-07-30T04:33:14.284Z,99.90
2022-07-30T04:35:50.098Z,99.90
2022-07-30T04:38:24.499Z,99.90
2022-07-30T04:40:51.967Z,99.90
2022-07-30T04:43:19.102Z,99.90
2022-07-30T04:45:46.173Z,99.90
2022-07-30T04:48:13.190Z,99.90
2022-07-30T04:50:42.446Z,99.90
2022-07-30T04:53:11.883Z,99.90
2022-07-30T04:55:45.593Z,99.90
2022-07-30T04:58:13.167Z,99.90
2022-07-30T05:00:41.595Z,99.90
2022-07-30T05:03:13.527Z,99.90
2022-07-30T05:05:43.828Z,99.90
2022-07-30T05:08:10.752Z,99.90
2022-07-30T05:10:38.040Z,99.90
2022-07-30T05:13:05.137Z,99.90
2022-07-30T05:15:35.973Z,99.90
2022-07-30T05:18:06.143Z,99.90
2022-07-30T05:20:35.906Z,99.90
2022-07-30T05:23:08.738Z,99.90
2022-07-30T05:25:36.171Z,99.90
2022-07-30T05:28:18.963Z,99.90
2022-07-30T05:30:48.691Z,99.90
2022-07-30T05:33:18.190Z,99.90
2022-07-30T05:35:45.228Z,99.90
2022-07-30T05:38:13.407Z,99.90
2022-07-30T05:41:30.718Z,99.90
2022-07-30T05:44:23.598Z,99.90
2022-07-30T05:46:52.071Z,99.90
2022-07-30T05:49:19.447Z,99.90
2022-07-30T05:51:46.575Z,99.90
2022-07-30T05:54:13.816Z,99.90
2022-07-30T05:57:01.516Z,99.90
2022-07-30T05:59:32.463Z,99.90
2022-07-30T06:02:08.641Z,99.90
2022-07-30T06:04:55.040Z,99.90
2022-07-30T06:07:24.130Z,99.90
2022-07-30T06:09:54.253Z,99.90
2022-07-30T06:12:21.869Z,99.90
2022-07-30T06:14:49.510Z,99.90
2022-07-30T06:17:24.495Z,99.90
2022-07-30T06:20:21.748Z,99.90
2022-07-30T06:23:06.518Z,99.90
2022-07-30T06:25:49.695Z,99.90
2022-07-30T06:31:11.907Z,99.90
2022-07-30T06:33:39.592Z,99.90
2022-07-30T06:36:07.452Z,99.90
2022-07-30T06:38:47.807Z,99.90
2022-07-30T06:41:20.762Z,99.90
2022-07-30T06:43:53.541Z,99.90
2022-07-30T06:46:46.838Z,99.90
2022-07-30T06:49:15.049Z,99.90
2022-07-30T06:51:42.723Z,99.90
2022-07-30T06:54:09.890Z,99.90
2022-07-30T06:56:37.324Z,99.90
2022-07-30T06:59:06.679Z,99.90
2022-07-30T07:01:54.294Z,99.90
2022-07-30T07:04:21.735Z,99.90
2022-07-30T07:06:48.686Z,99.90
2022-07-30T07:09:24.532Z,99.90
2022-07-30T07:12:09.425Z,99.60
2022-07-30T07:14:36.854Z,97.70
2022-07-30T07:17:03.898Z,96.20
2022-07-30T07:20:00.259Z,92.60
2022-07-30T07:22:31.287Z,88.40
2022-07-30T07:24:58.273Z,84.90
2022-07-30T07:27:28.859Z,82.10
2022-07-30T07:30:01.391Z,78.50
2022-07-30T07:32:35.140Z,77.20
2022-07-30T07:35:02.687Z,74.80
2022-07-30T07:37:30.207Z,73.00
2022-07-30T07:39:57.210Z,70.10
2022-07-30T07:42:24.372Z,68.90
2022-07-30T07:44:52.801Z,67.50
2022-07-30T07:47:20.185Z,64.70
2022-07-30T07:50:02.662Z,63.20
2022-07-30T07:52:30.276Z,61.80
2022-07-30T07:54:57.172Z,61.10
2022-07-30T07:57:24.320Z,61.40
2022-07-30T07:59:54.360Z,60.40
2022-07-30T08:02:26.974Z,59.70
2022-07-30T08:05:06.322Z,59.40
2022-07-30T08:07:45.602Z,59.20
2022-07-30T08:10:16.224Z,58.90
2022-07-30T08:13:48.480Z,58.80
2022-07-30T08:16:14.926Z,57.70
2022-07-30T08:19:16.686Z,57.00
2022-07-30T08:21:50.667Z,57.20
2022-07-30T08:24:18.361Z,57.30
2022-07-30T08:26:45.264Z,57.20
2022-07-30T08:29:16.838Z,56.70
2022-07-30T08:31:44.843Z,56.40
2022-07-30T08:34:13.632Z,55.60
2022-07-30T08:36:41.180Z,54.40
2022-07-30T08:39:08.722Z,53.80
2022-07-30T08:41:36.718Z,52.90
2022-07-30T08:44:06.929Z,52.20
2022-07-30T08:46:41.307Z,52.20
2022-07-30T08:49:25.509Z,51.90
2022-07-30T08:51:52.415Z,51.30
2022-07-30T08:54:37.248Z,51.10
2022-07-30T08:57:04.590Z,50.00
2022-07-30T08:59:59.866Z,49.70
2022-07-30T09:02:27.471Z,49.80
2022-07-30T09:05:03.923Z,49.80
2022-07-30T09:07:33.585Z,49.70
2022-07-30T09:10:01.841Z,49.20
2022-07-30T09:12:45.127Z,49.50
2022-07-30T09:15:20.379Z,48.70
2022-07-30T09:18:00.750Z,48.10
2022-07-30T09:20:31.537Z,48.10
2022-07-30T09:23:03.512Z,48.00
2022-07-30T09:25:41.072Z,48.30
2022-07-30T09:28:31.421Z,48.20
2022-07-30T09:31:13.679Z,46.90
2022-07-30T09:33:59.453Z,45.80
2022-07-30T09:37:16.943Z,44.50
2022-07-30T09:40:22.637Z,43.30
2022-07-30T09:43:27.202Z,43.80
2022-07-30T09:46:01.764Z,43.20
2022-07-30T09:48:28.864Z,43.20
2022-07-30T09:50:57.494Z,43.20
2022-07-30T09:53:24.811Z,42.50
2022-07-30T09:55:52.432Z,42.60
2022-07-30T09:58:26.995Z,42.50
2022-07-30T10:00:59.769Z,42.30
2022-07-30T10:03:47.774Z,42.00
2022-07-30T10:06:38.293Z,41.50
2022-07-30T10:09:47.963Z,41.30
2022-07-30T10:12:16.872Z,40.90
2022-07-30T10:14:48.321Z,40.20
2022-07-30T10:17:22.207Z,40.90
2022-07-30T10:20:12.369Z,40.50
2022-07-30T10:23:08.216Z,40.80
2022-07-30T10:25:36.453Z,40.20
2022-07-30T10:28:12.952Z,40.30
2022-07-30T10:30:41.361Z,39.90
2022-07-30T10:33:13.400Z,40.10
2022-07-30T10:36:02.886Z,40.40
2022-07-30T10:38:33.274Z,39.00
2022-07-30T10:41:43.034Z,39.20
2022-07-30T10:44:40.894Z,39.40
2022-07-30T10:47:14.592Z,38.50
2022-07-30T10:49:43.174Z,38.10
2022-07-30T10:52:10.795Z,38.20
2022-07-30T10:54:41.887Z,37.90
2022-07-30T10:57:23.017Z,38.20
2022-07-30T11:00:04.188Z,38.30
2022-07-30T11:02:34.935Z,38.30
2022-07-30T11:05:18.624Z,39.10
2022-07-30T11:07:54.389Z,39.10
2022-07-30T11:10:36.786Z,39.30
2022-07-30T11:13:05.166Z,39.30
2022-07-30T11:15:55.961Z,39.90
2022-07-30T11:18:24.995Z,39.60
2022-07-30T11:21:13.984Z,39.40
2022-07-30T11:23:40.995Z,39.10
2022-07-30T11:26:07.897Z,38.60
2022-07-30T11:28:43.874Z,38.60
2022-07-30T11:31:55.114Z,38.70
2022-07-30T11:34:25.612Z,37.00
2022-07-30T11:37:18.890Z,38.50
2022-07-30T11:39:55.665Z,39.00
2022-07-30T11:42:36.487Z,39.00
2022-07-30T11:45:18.652Z,39.70
2022-07-30T11:47:46.835Z,40.30
2022-07-30T11:50:24.381Z,40.60
2022-07-30T11:53:00.965Z,40.60
2022-07-30T11:55:32.780Z,40.80
2022-07-30T11:58:00.962Z,41.20
2022-07-30T12:00:47.880Z,39.90
2022-07-30T12:03:16.305Z,39.00
2022-07-30T12:05:43.598Z,38.70
2022-07-30T12:08:33.427Z,38.90
2022-07-30T12:10:59.961Z,39.10
2022-07-30T12:13:45.453Z,38.80
2022-07-30T12:16:16.517Z,38.70
2022-07-30T12:18:44.113Z,38.60
2022-07-30T12:21:16.303Z,38.20
2022-07-30T12:24:04.335Z,37.80
2022-07-30T12:26:32.695Z,37.80
2022-07-30T12:29:01.255Z,38.60
2022-07-30T12:31:28.201Z,38.50
2022-07-30T12:33:58.969Z,37.90
2022-07-30T12:36:33.849Z,37.80
2022-07-30T12:39:02.470Z,38.10
2022-07-30T12:41:49.260Z,38.00
2022-07-30T12:44:35.887Z,37.60
2022-07-30T12:47:04.451Z,37.20
2022-07-30T12:49:39.553Z,37.00
2022-07-30T12:52:28.465Z,37.30
2022-07-30T12:55:03.839Z,38.30
2022-07-30T12:58:07.176Z,38.50
2022-07-30T13:00:44.444Z,38.40
2022-07-30T13:03:26.082Z,38.30
2022-07-30T13:05:55.376Z,37.50
2022-07-30T13:08:44.723Z,37.80
2022-07-30T13:11:11.608Z,37.50
2022-07-30T13:13:38.425Z,38.10
2022-07-30T13:16:06.143Z,36.20
2022-07-30T13:18:33.826Z,35.30
2022-07-30T13:21:00.981Z,35.10
2022-07-30T13:23:28.353Z,35.20
2022-07-30T13:25:55.221Z,34.70
2022-07-30T13:28:22.222Z,34.80
2022-07-30T13:30:49.294Z,35.60
2022-07-30T13:33:16.479Z,35.70
2022-07-30T13:35:43.950Z,36.10
2022-07-30T13:38:13.472Z,36.30
2022-07-30T13:40:40.584Z,36.20
2022-07-30T13:43:07.787Z,36.90
2022-07-30T13:45:35.359Z,37.20
2022-07-30T13:48:02.426Z,36.50
2022-07-30T13:50:29.306Z,36.50
2022-07-30T13:53:01.796Z,35.40
2022-07-30T13:55:29.660Z,35.00
2022-07-30T13:57:56.706Z,34.40
2022-07-30T14:00:23.656Z,34.90
2022-07-30T14:02:51.397Z,34.60
2022-07-30T14:05:18.300Z,34.50
2022-07-30T14:07:45.125Z,34.00
2022-07-30T14:10:12.065Z,34.10
2022-07-30T14:12:40.051Z,34.40
2022-07-30T14:15:07.577Z,34.30
2022-07-30T14:17:34.489Z,34.10
2022-07-30T14:20:30.706Z,34.70
2022-07-30T14:22:57.662Z,34.10
2022-07-30T14:25:24.806Z,33.90
2022-07-30T14:27:51.651Z,33.80
2022-07-30T14:30:18.573Z,33.70
2022-07-30T14:32:45.465Z,33.70
2022-07-30T14:35:12.928Z,34.00
2022-07-30T14:37:40.434Z,33.70
2022-07-30T14:40:08.438Z,34.40
2022-07-30T14:42:36.405Z,34.60
2022-07-30T14:45:07.861Z,35.20
2022-07-30T14:47:34.728Z,35.10
2022-07-30T14:50:01.618Z,35.80
2022-07-30T14:52:28.493Z,36.00
2022-07-30T14:54:55.392Z,36.50
2022-07-30T14:57:22.265Z,37.10
2022-07-30T14:59:49.133Z,36.80
2022-07-30T15:02:16.007Z,37.00
2022-07-30T15:04:42.865Z,37.40
2022-07-30T15:07:09.696Z,37.70
2022-07-30T15:09:36.577Z,37.70
2022-07-30T15:12:08.929Z,37.10
2022-07-30T15:14:40.178Z,35.70
2022-07-30T15:17:07.946Z,34.70
2022-07-30T15:19:34.815Z,34.80
2022-07-30T15:22:02.691Z,34.40
2022-07-30T15:24:30.159Z,34.80
2022-07-30T15:26:57.062Z,35.20
2022-07-30T15:29:24.404Z,35.80
2022-07-30T15:31:51.585Z,37.40
2022-07-30T15:34:18.746Z,37.50
2022-07-30T15:36:45.641Z,36.60
2022-07-30T15:39:13.477Z,37.50
2022-07-30T15:41:42.458Z,35.70
2022-07-30T15:44:09.323Z,34.50
2022-07-30T15:46:36.257Z,33.90
2022-07-30T15:49:03.140Z,33.00
2022-07-30T15:51:31.592Z,32.80
2022-07-30T15:53:58.507Z,32.20
2022-07-30T15:56:26.559Z,31.50
2022-07-30T15:58:53.423Z,31.30
2022-07-30T16:01:20.388Z,31.40
2022-07-30T16:03:47.318Z,30.60
2022-07-30T16:06:14.690Z,31.10
2022-07-30T16:08:41.610Z,31.10
2022-07-30T16:11:10.885Z,32.00
2022-07-30T16:13:37.955Z,33.50
2022-07-30T16:16:05.175Z,34.00
2022-07-30T16:18:31.984Z,34.50
2022-07-30T16:21:01.195Z,36.00
2022-07-30T16:23:28.369Z,36.10
2022-07-30T16:26:03.373Z,36.20
2022-07-30T16:28:30.203Z,36.10
2022-07-30T16:30:57.051Z,36.40
2022-07-30T16:33:23.872Z,39.70
2022-07-30T16:35:51.209Z,43.20
2022-07-30T16:38:19.741Z,44.60
2022-07-30T16:40:46.610Z,45.50
2022-07-30T16:43:15.585Z,46.80
2022-07-30T16:45:43.835Z,47.40
2022-07-30T16:48:11.502Z,48.20
2022-07-30T16:50:40.642Z,48.70
2022-07-30T16:53:14.171Z,47.60
2022-07-30T16:55:45.252Z,45.80
2022-07-30T16:58:12.163Z,44.10
2022-07-30T17:00:39.470Z,44.30
2022-07-30T17:03:06.517Z,46.20
2022-07-30T17:05:33.393Z,46.20
2022-07-30T17:08:00.404Z,45.40
2022-07-30T17:10:27.340Z,43.40
2022-07-30T17:12:57.124Z,42.30
2022-07-30T17:15:32.208Z,40.10
2022-07-30T17:18:00.387Z,37.20
2022-07-30T17:20:27.636Z,36.40
2022-07-30T17:22:56.150Z,36.50
2022-07-30T17:25:25.641Z,40.10
2022-07-30T17:27:52.734Z,44.40
2022-07-30T17:30:20.515Z,46.80
2022-07-30T17:32:47.435Z,48.20
2022-07-30T17:35:14.281Z,48.50
2022-07-30T17:37:41.253Z,49.00
2022-07-30T17:40:29.254Z,50.20
2022-07-30T17:43:02.966Z,51.00
2022-07-30T17:45:34.383Z,51.70
2022-07-30T17:48:01.824Z,52.50
2022-07-30T17:50:29.729Z,53.30
2022-07-30T17:52:56.680Z,53.70
2022-07-30T17:55:23.846Z,54.20
2022-07-30T17:57:50.918Z,54.80
2022-07-30T18:00:17.960Z,55.50
2022-07-30T18:02:44.906Z,56.10
2022-07-30T18:05:14.548Z,56.80
2022-07-30T18:07:42.131Z,57.50
2022-07-30T18:10:09.490Z,57.90
2022-07-30T18:12:36.452Z,58.20
2022-07-30T18:15:06.470Z,58.60
2022-07-30T18:17:33.485Z,59.10
2022-07-30T18:20:00.438Z,59.50
2022-07-30T18:22:29.812Z,59.90
2022-07-30T18:25:00.682Z,60.20
2022-07-30T18:27:37.094Z,61.50
2022-07-30T18:30:04.450Z,61.50
2022-07-30T18:32:31.348Z,62.00
2022-07-30T18:34:58.265Z,62.20
2022-07-30T18:37:25.578Z,63.10
2022-07-30T18:40:08.898Z,63.70
2022-07-30T18:42:35.858Z,64.10
2022-07-30T18:45:02.796Z,64.70
2022-07-30T18:47:29.685Z,65.40
2022-07-30T18:49:56.728Z,65.60
2022-07-30T18:52:23.665Z,66.40
2022-07-30T18:54:51.101Z,66.90
2022-07-30T18:57:18.101Z,66.80
2022-07-30T18:59:45.027Z,67.40
2022-07-30T19:02:11.916Z,68.00
2022-07-30T19:04:38.990Z,68.50
2022-07-30T19:07:07.251Z,69.10
2022-07-30T19:09:34.592Z,68.80
2022-07-30T19:12:01.776Z,69.70
2022-07-30T19:14:28.956Z,70.40
2022-07-30T19:16:59.455Z,70.70
2022-07-30T19:19:28.162Z,70.70
2022-07-30T19:21:55.201Z,70.90
2022-07-30T19:24:22.240Z,71.40
2022-07-30T19:26:49.257Z,71.90
2022-07-30T19:29:16.268Z,74.40
2022-07-30T19:31:43.219Z,73.40
2022-07-30T19:34:11.094Z,74.30
2022-07-30T19:36:38.252Z,74.90
2022-07-30T19:39:07.201Z,76.10
2022-07-30T19:41:40.663Z,76.00
2022-07-30T19:44:09.127Z,77.10
2022-07-30T19:46:36.546Z,77.90
2022-07-30T19:49:03.819Z,77.20
2022-07-30T19:52:09.844Z,78.30
2022-07-30T19:54:20.670Z,79.00
2022-07-30T19:56:48.695Z,80.20
2022-07-30T19:59:15.706Z,81.40
2022-07-30T20:01:43.201Z,80.50
2022-07-30T20:04:11.263Z,82.10
2022-07-30T20:06:40.014Z,84.10
2022-07-30T20:09:15.010Z,85.90
2022-07-30T20:11:43.361Z,86.90
2022-07-30T20:14:10.399Z,88.50
2022-07-30T20:16:37.515Z,89.00
2022-07-30T20:19:04.804Z,90.10
2022-07-30T20:21:55.982Z,90.40
2022-07-30T20:24:20.498Z,90.20
2022-07-30T20:26:47.952Z,91.30
2022-07-30T20:29:19.246Z,92.00
2022-07-30T20:31:46.653Z,92.00
2022-07-30T20:34:18.178Z,92.20
2022-07-30T20:36:45.189Z,92.50
2022-07-30T20:39:18.207Z,92.50
2022-07-30T20:41:45.444Z,92.60
2022-07-30T20:44:23.094Z,93.10
2022-07-30T20:46:50.791Z,93.40
2022-07-30T20:49:24.184Z,93.90
2022-07-30T20:52:01.252Z,94.30
2022-07-30T20:54:30.131Z,94.50
2022-07-30T20:56:57.559Z,94.30
2022-07-30T20:59:25.022Z,94.90
2022-07-30T21:01:51.868Z,95.20
2022-07-30T21:04:23.950Z,95.20
2022-07-30T21:06:52.914Z,95.40
2022-07-30T21:09:20.100Z,95.70
2022-07-30T21:11:50.407Z,96.10
2022-07-30T21:14:17.835Z,96.80
2022-07-30T21:16:44.623Z,97.20
2022-07-30T21:19:14.453Z,97.20
2022-07-30T21:21:48.333Z,97.60
2022-07-30T21:24:18.767Z,97.00
2022-07-30T21:26:48.617Z,98.10
2022-07-30T21:29:15.974Z,97.50
2022-07-30T21:32:01.704Z,97.70
2022-07-30T21:34:33.615Z,98.60
2022-07-30T21:37:02.931Z,98.90
2022-07-30T21:39:30.189Z,98.50
2022-07-30T21:41:57.328Z,98.40
2022-07-30T21:44:24.386Z,98.70
2022-07-30T21:46:52.370Z,99.20
2022-07-30T21:49:22.688Z,98.90
2022-07-30T21:51:50.892Z,98.60
2022-07-30T21:54:26.507Z,99.10
2022-07-30T21:56:56.457Z,99.00
2022-07-30T21:59:25.518Z,99.30
2022-07-30T22:01:55.344Z,99.70
2022-07-30T22:04:22.395Z,99.90
2022-07-30T22:06:49.269Z,99.70
2022-07-30T22:09:19.508Z,99.30
2022-07-30T22:12:06.538Z,99.30
2022-07-30T22:14:37.638Z,98.10
2022-07-30T22:17:04.623Z,97.20
2022-07-30T22:19:32.326Z,96.80
2022-07-30T22:22:05.225Z,98.00
2022-07-30T22:24:46.034Z,98.00
2022-07-30T22:27:14.920Z,98.10
2022-07-30T22:29:43.118Z,98.50
2022-07-30T22:32:11.368Z,99.30
2022-07-30T22:34:38.344Z,99.90
2022-07-30T22:37:13.231Z,99.90
2022-07-30T22:39:51.006Z,99.90
2022-07-30T22:42:20.184Z,99.90
2022-07-30T22:44:48.262Z,99.90
2022-07-30T22:47:21.270Z,99.90
2022-07-30T22:50:05.591Z,99.90
2022-07-30T22:52:38.896Z,99.80
2022-07-30T22:55:09.173Z,99.90
2022-07-30T22:57:38.088Z,99.90
2022-07-30T23:00:11.340Z,99.90
2022-07-30T23:02:39.225Z,99.90
2022-07-30T23:05:07.041Z,99.90
2022-07-30T23:07:38.947Z,99.90
2022-07-30T23:12:34.042Z,99.90
2022-07-30T23:12:55.261Z,99.90
2022-07-30T23:15:22.981Z,99.90
2022-07-30T23:17:49.854Z,99.90
2022-07-30T23:20:18.299Z,99.90
2022-07-30T23:22:45.180Z,99.90
2022-07-30T23:25:12.279Z,99.90
2022-07-30T23:27:39.376Z,99.90
2022-07-30T23:30:07.783Z,99.90
2022-07-30T23:32:34.728Z,99.90
2022-07-30T23:35:01.602Z,99.90
2022-07-30T23:37:28.518Z,99.90
2022-07-30T23:40:06.731Z,99.90
2022-07-30T23:42:33.666Z,99.90
2022-07-30T23:45:00.551Z,99.90
2022-07-30T23:47:52.168Z,99.90
2022-07-30T23:50:14.349Z,99.90
2022-07-30T23:52:42.328Z,99.90
2022-07-30T23:55:09.624Z,99.90
2022-07-30T23:57:37.533Z,99.90
